Time;durP1;ratioP1;P1;durP2;ratioP2;P2;SDS_P1;SDS_P2;PMS_P1;PMS_P2;Temp;Humidity;BMP_temperature;BMP_pressure;BME280_temperature;BME280_humidity;BME280_pressure;Samples;Min_cycle;Max_cycle;Signal;HPM_P1;HPM_P2
2023/06/13 00:00:37;;;;;;;6.63;4.22;;;21.20;88.10;;;;;;4952386;28;20122;-78
2023/06/13 00:03:03;;;;;;;4.95;3.40;;;21.20;88.00;;;;;;5017786;28;20106;-75
2023/06/13 00:05:30;;;;;;;7.15;3.67;;;21.20;87.90;;;;;;4951993;28;20136;-77
2023/06/13 00:07:56;;;;;;;7.93;4.70;;;21.20;87.50;;;;;;4952029;28;20027;-77
2023/06/13 00:10:22;;;;;;;6.55;3.80;;;21.20;86.60;;;;;;4952331;28;20077;-79
2023/06/13 00:12:49;;;;;;;7.85;3.65;;;21.20;86.00;;;;;;4951846;28;20392;-79
2023/06/13 00:15:15;;;;;;;6.82;3.70;;;21.20;86.00;;;;;;4951933;28;20031;-78
2023/06/13 00:17:41;;;;;;;8.43;3.60;;;21.20;86.10;;;;;;4951837;28;20059;-79
2023/06/13 00:20:08;;;;;;;13.50;3.85;;;21.20;87.00;;;;;;4964770;28;20057;-75
2023/06/13 00:22:34;;;;;;;4.57;3.72;;;21.20;87.20;;;;;;5052469;28;20034;-78
2023/06/13 00:25:00;;;;;;;8.57;3.42;;;21.10;87.10;;;;;;5052535;28;20122;-79
2023/06/13 00:27:26;;;;;;;6.68;3.60;;;21.10;86.70;;;;;;5052222;28;20033;-78
2023/06/13 00:29:52;;;;;;;10.48;4.00;;;21.10;86.20;;;;;;5052470;28;20032;-78
2023/06/13 00:32:18;;;;;;;5.30;3.72;;;21.10;86.40;;;;;;5052322;28;20049;-77
2023/06/13 00:34:44;;;;;;;7.07;4.00;;;21.10;86.90;;;;;;5054077;28;20575;-79
2023/06/13 00:37:12;;;;;;;9.10;4.25;;;21.10;87.20;;;;;;5056268;28;20096;-78
2023/06/13 00:39:38;;;;;;;10.07;3.92;;;21.00;87.40;;;;;;5056492;28;20104;-79
2023/06/13 00:42:06;;;;;;;8.75;4.10;;;21.00;86.90;;;;;;5056475;28;20425;-78
2023/06/13 00:44:32;;;;;;;9.80;4.00;;;21.00;86.70;;;;;;5056267;28;20074;-78
2023/06/13 00:47:00;;;;;;;7.07;3.55;;;20.90;86.20;;;;;;5056201;28;20464;-78
2023/06/13 00:49:26;;;;;;;6.38;3.60;;;20.90;85.80;;;;;;5056155;28;20025;-78
2023/06/13 00:51:54;;;;;;;3.78;3.30;;;21.00;85.70;;;;;;5055959;28;20037;-77
2023/06/13 00:54:21;;;;;;;5.30;3.45;;;20.90;85.20;;;;;;5056078;28;20071;-76
2023/06/13 00:56:48;;;;;;;4.95;3.13;;;20.90;84.80;;;;;;5056095;28;20033;-77
2023/06/13 00:59:15;;;;;;;6.63;3.38;;;20.90;85.00;;;;;;5053267;28;20028;-79
2023/06/13 01:01:42;;;;;;;9.38;4.03;;;20.90;85.40;;;;;;5053144;28;20353;-79
2023/06/13 01:04:08;;;;;;;5.32;3.40;;;20.80;86.50;;;;;;5053699;28;20056;-78
2023/06/13 01:06:38;;;;;;;7.20;4.35;;;20.80;86.70;;;;;;5055592;28;20094;-78
2023/06/13 01:09:05;;;;;;;6.25;3.67;;;20.80;87.30;;;;;;5055952;28;20017;-79
2023/06/13 01:11:33;;;;;;;5.53;3.78;;;20.80;87.30;;;;;;5037657;28;20470;-77
2023/06/13 01:14:07;;;;;;;5.72;3.53;;;20.80;87.50;;;;;;5055341;28;20017;-78
2023/06/13 01:16:43;;;;;;;4.00;3.70;;;20.70;87.20;;;;;;5055323;28;20025;-76
2023/06/13 01:19:28;;;;;;;5.57;3.22;;;20.70;86.90;;;;;;5055500;28;20092;-78
2023/06/13 01:21:56;;;;;;;9.10;4.07;;;20.70;86.60;;;;;;5055231;28;20020;-77
2023/06/13 01:24:49;;;;;;;5.82;3.42;;;20.80;86.30;;;;;;5055439;28;20032;-77
2023/06/13 01:27:16;;;;;;;6.63;3.35;;;20.70;85.60;;;;;;5055284;28;20500;-79
2023/06/13 01:29:43;;;;;;;5.07;3.28;;;20.80;85.60;;;;;;5055395;28;20021;-77
2023/06/13 01:32:10;;;;;;;4.93;3.40;;;20.70;85.60;;;;;;5055487;28;20029;-78
2023/06/13 01:34:36;;;;;;;9.63;3.20;;;20.80;85.30;;;;;;5055346;28;20044;-76
2023/06/13 01:37:03;;;;;;;6.15;3.40;;;20.70;85.10;;;;;;5054745;28;20029;-77
2023/06/13 01:39:28;;;;;;;5.30;3.38;;;20.70;85.10;;;;;;5055149;28;20029;-77
2023/06/13 01:41:54;;;;;;;8.00;3.50;;;20.70;85.60;;;;;;5055206;28;20040;-77
2023/06/13 01:44:20;;;;;;;6.65;3.60;;;20.70;85.40;;;;;;5055102;28;20021;-77
2023/06/13 01:47:07;;;;;;;7.03;3.95;;;20.70;85.40;;;;;;5036115;28;20059;-76
2023/06/13 01:49:54;;;;;;;4.53;3.63;;;20.70;86.20;;;;;;5055287;28;20424;-78
2023/06/13 01:53:04;;;;;;;18.35;4.85;;;20.70;86.70;;;;;;5054820;28;20112;-78
2023/06/13 01:55:36;;;;;;;10.85;4.68;;;20.60;87.10;;;;;;5024100;28;20040;-78
2023/06/13 01:58:08;;;;;;;;;;;20.60;87.80;;;;;;5055276;28;20477;-78
2023/06/13 02:00:35;;;;;;;10.52;4.93;;;20.60;88.20;;;;;;5054757;28;19905;-77
2023/06/13 02:03:03;;;;;;;6.57;4.10;;;20.50;88.60;;;;;;5055055;28;20473;-77
2023/06/13 02:05:29;;;;;;;5.10;3.85;;;20.50;88.60;;;;;;5054852;28;20112;-78
2023/06/13 02:07:56;;;;;;;5.20;3.95;;;20.60;88.60;;;;;;5054905;28;20571;-78
2023/06/13 02:10:23;;;;;;;9.85;4.03;;;20.50;88.70;;;;;;5055013;28;20035;-77
2023/06/13 02:12:48;;;;;;;10.13;4.70;;;20.50;89.00;;;;;;5054710;28;20071;-79
2023/06/13 02:15:14;;;;;;;6.57;4.00;;;20.50;89.40;;;;;;5054533;28;20461;-79
2023/06/13 02:17:40;;;;;;;7.68;4.15;;;20.50;89.10;;;;;;5054715;28;20476;-78
2023/06/13 02:20:07;;;;;;;10.73;4.47;;;20.50;89.20;;;;;;5054533;28;20465;-77
2023/06/13 02:22:33;;;;;;;7.25;4.15;;;20.50;89.20;;;;;;5054352;28;20033;-77
2023/06/13 02:24:59;;;;;;;8.35;4.85;;;20.40;89.60;;;;;;5054507;28;20028;-79
2023/06/13 02:27:25;;;;;;;6.93;4.10;;;20.40;90.00;;;;;;5054151;28;20029;-78
2023/06/13 02:29:52;;;;;;;8.93;4.32;;;20.40;90.00;;;;;;5054247;28;20033;-79
2023/06/13 02:32:18;;;;;;;7.30;4.40;;;20.40;90.10;;;;;;5054322;28;20477;-78
2023/06/13 02:34:44;;;;;;;8.32;4.22;;;20.40;90.00;;;;;;5054026;28;20043;-77
2023/06/13 02:37:10;;;;;;;6.85;4.40;;;20.40;90.00;;;;;;5054126;28;20481;-78
2023/06/13 02:39:36;;;;;;;5.35;4.53;;;20.40;90.20;;;;;;5054103;28;20017;-78
2023/06/13 02:42:01;;;;;;;6.05;4.18;;;20.40;90.10;;;;;;5054004;28;20021;-77
2023/06/13 02:44:27;;;;;;;4.82;3.90;;;20.40;90.10;;;;;;5053828;28;20373;-77
2023/06/13 02:46:53;;;;;;;10.60;4.10;;;20.40;90.00;;;;;;5053970;28;20047;-79
2023/06/13 02:49:19;;;;;;;8.10;3.88;;;20.40;90.00;;;;;;5054045;28;20167;-78
2023/06/13 02:51:45;;;;;;;4.70;3.72;;;20.40;88.60;;;;;;5054030;28;20033;-78
2023/06/13 02:54:11;;;;;;;8.38;3.60;;;20.30;88.60;;;;;;5053732;28;20090;-78
2023/06/13 02:56:37;;;;;;;5.32;3.50;;;20.30;88.70;;;;;;5053504;28;20056;-77
2023/06/13 02:59:03;;;;;;;7.57;3.65;;;20.30;88.60;;;;;;5053835;28;20429;-78
2023/06/13 03:01:29;;;;;;;7.70;3.88;;;20.30;88.70;;;;;;5053906;28;20025;-78
2023/06/13 03:03:54;;;;;;;9.70;4.07;;;20.20;88.70;;;;;;5053517;28;20017;-75
2023/06/13 03:06:20;;;;;;;6.85;3.72;;;20.20;89.00;;;;;;5035521;28;20508;-78
2023/06/13 03:08:48;;;;;;;7.03;3.95;;;20.20;89.20;;;;;;5053664;28;20071;-76
2023/06/13 03:11:13;;;;;;;7.88;4.15;;;20.20;89.10;;;;;;5053356;28;20028;-78
2023/06/13 03:13:39;;;;;;;8.45;4.40;;;20.20;89.40;;;;;;5053705;28;20025;-78
2023/06/13 03:16:06;;;;;;;6.25;3.95;;;20.10;89.90;;;;;;5053294;28;20040;-78
2023/06/13 03:18:34;;;;;;;6.97;4.25;;;20.20;90.00;;;;;;5053599;28;20051;-77
2023/06/13 03:21:00;;;;;;;8.52;4.30;;;20.10;90.00;;;;;;5053436;28;20017;-79
2023/06/13 03:23:25;;;;;;;7.30;4.03;;;20.10;90.00;;;;;;5053374;28;20389;-77
2023/06/13 03:25:51;;;;;;;7.63;4.28;;;20.10;89.50;;;;;;5053088;28;20025;-77
2023/06/13 03:28:17;;;;;;;7.25;3.90;;;20.10;89.00;;;;;;5053183;28;20025;-77
2023/06/13 03:30:42;;;;;;;10.70;4.25;;;20.10;89.00;;;;;;5053358;28;20021;-77
2023/06/13 03:33:09;;;;;;;9.63;4.03;;;20.10;88.90;;;;;;5053350;28;20052;-78
2023/06/13 03:35:35;;;;;;;6.70;4.05;;;20.00;88.40;;;;;;5053003;28;20049;-79
2023/06/13 03:38:01;;;;;;;4.53;3.92;;;20.00;89.20;;;;;;5053293;28;20021;-77
2023/06/13 03:40:28;;;;;;;9.07;3.88;;;20.00;89.00;;;;;;5053077;28;20071;-78
2023/06/13 03:42:53;;;;;;;4.93;4.15;;;20.00;88.90;;;;;;5052879;28;20017;-75
2023/06/13 03:45:19;;;;;;;8.20;3.97;;;19.90;88.80;;;;;;5052651;28;20029;-76
2023/06/13 03:47:45;;;;;;;7.00;3.58;;;19.90;89.40;;;;;;5053087;28;20052;-78
2023/06/13 03:50:11;;;;;;;8.93;3.92;;;19.90;89.20;;;;;;5053016;28;20458;-78
2023/06/13 03:52:37;;;;;;;6.50;3.80;;;19.90;89.30;;;;;;5052718;28;20029;-78
2023/06/13 03:55:02;;;;;;;6.88;3.60;;;19.90;89.40;;;;;;5052777;28;20013;-76
2023/06/13 03:57:31;;;;;;;8.15;4.00;;;19.90;89.60;;;;;;5052763;28;20056;-77
2023/06/13 03:59:57;;;;;;;8.52;3.70;;;19.90;90.00;;;;;;5052439;28;20040;-77
2023/06/13 04:02:23;;;;;;;4.40;3.53;;;19.90;89.60;;;;;;5052652;28;20032;-76
2023/06/13 04:04:48;;;;;;;5.28;3.25;;;19.90;88.90;;;;;;5052711;28;20047;-75
2023/06/13 04:07:14;;;;;;;6.80;3.80;;;19.90;87.60;;;;;;5052597;28;20029;-77
2023/06/13 04:09:40;;;;;;;6.50;3.15;;;20.00;86.90;;;;;;5052131;28;20045;-77
2023/06/13 04:12:06;;;;;;;11.02;3.75;;;20.00;86.20;;;;;;5052765;28;20029;-76
2023/06/13 04:14:32;;;;;;;7.28;3.70;;;20.10;85.90;;;;;;5052457;28;20020;-78
2023/06/13 04:16:59;;;;;;;6.65;3.40;;;20.10;85.60;;;;;;5052421;28;20110;-73
2023/06/13 04:19:25;;;;;;;8.63;3.67;;;20.10;84.60;;;;;;5052227;28;20477;-78
2023/06/13 04:21:51;;;;;;;5.03;3.03;;;20.10;85.00;;;;;;5052519;28;20056;-77
2023/06/13 04:24:18;;;;;;;4.70;3.22;;;20.10;84.50;;;;;;5052342;28;20393;-78
2023/06/13 04:26:46;;;;;;;8.23;3.78;;;20.20;84.50;;;;;;5052676;28;20433;-78
2023/06/13 04:29:18;;;;;;;7.75;3.30;;;20.20;84.80;;;;;;5052228;28;20037;-77
2023/06/13 04:31:45;;;;;;;7.47;3.58;;;20.20;84.80;;;;;;5052485;28;20120;-77
2023/06/13 04:34:12;;;;;;;10.65;3.38;;;20.20;85.30;;;;;;5052337;28;20029;-76
2023/06/13 04:36:38;;;;;;;3.97;3.50;;;20.30;85.60;;;;;;5035569;28;20451;-77
2023/06/13 04:39:08;;;;;;;6.25;3.70;;;20.30;85.30;;;;;;5052606;28;20048;-75
2023/06/13 04:41:37;;;;;;;6.00;3.58;;;20.30;85.80;;;;;;5052163;28;20078;-77
2023/06/13 04:44:09;;;;;;;10.48;3.60;;;20.40;86.20;;;;;;5052452;28;20025;-77
2023/06/13 04:46:36;;;;;;;8.40;3.53;;;20.40;86.50;;;;;;5052376;28;20435;-77
2023/06/13 04:49:04;;;;;;;5.45;3.75;;;20.40;86.10;;;;;;5052155;28;20078;-79
2023/06/13 04:51:32;;;;;;;5.00;3.67;;;20.40;87.00;;;;;;5052548;28;20488;-75
2023/06/13 04:53:58;;;;;;;5.55;3.33;;;20.40;87.50;;;;;;5052037;28;20492;-76
2023/06/13 04:56:25;;;;;;;6.43;3.60;;;20.50;87.70;;;;;;5052198;28;20044;-76
2023/06/13 04:58:52;;;;;;;7.40;3.40;;;20.40;87.80;;;;;;5052324;28;20029;-75
2023/06/13 05:01:27;;;;;;;9.27;3.65;;;20.50;88.00;;;;;;5052272;28;20025;-74
2023/06/13 05:03:55;;;;;;;8.70;3.28;;;20.50;88.00;;;;;;5051981;28;20461;-75
2023/06/13 05:06:21;;;;;;;4.32;3.22;;;20.50;86.60;;;;;;5051905;28;20370;-74
2023/06/13 05:08:47;;;;;;;6.93;3.30;;;20.50;85.80;;;;;;5052111;28;20067;-75
2023/06/13 05:11:13;;;;;;;6.90;3.95;;;20.50;87.10;;;;;;5052168;28;20033;-74
2023/06/13 05:13:38;;;;;;;6.05;3.50;;;20.50;87.40;;;;;;5052108;28;20029;-74
2023/06/13 05:16:04;;;;;;;9.93;3.72;;;20.50;86.90;;;;;;5051677;28;20017;-73
2023/06/13 05:18:31;;;;;;;4.90;3.50;;;20.50;86.50;;;;;;5033908;28;20033;-74
2023/06/13 05:20:58;;;;;;;6.85;3.97;;;20.50;86.80;;;;;;5015489;28;20093;-75
2023/06/13 05:23:24;;;;;;;5.57;3.50;;;20.60;86.70;;;;;;4954030;28;20464;-75
2023/06/13 05:25:49;;;;;;;5.03;3.65;;;20.60;85.70;;;;;;4953984;28;20035;-76
2023/06/13 05:28:19;;;;;;;6.22;3.70;;;20.60;86.30;;;;;;4954072;28;20031;-76
2023/06/13 05:30:45;;;;;;;7.60;3.67;;;20.60;86.80;;;;;;4953238;28;20109;-75
2023/06/13 05:33:11;;;;;;;5.55;3.60;;;20.60;86.80;;;;;;4953661;28;20106;-76
2023/06/13 05:35:37;;;;;;;10.95;3.65;;;20.60;86.20;;;;;;4953129;28;20050;-75
2023/06/13 05:38:03;;;;;;;4.25;3.50;;;20.70;85.70;;;;;;4953645;28;20399;-75
2023/06/13 05:40:28;;;;;;;10.27;3.08;;;20.70;85.80;;;;;;4953661;28;20080;-76
2023/06/13 05:42:54;;;;;;;7.03;2.95;;;20.80;84.50;;;;;;4953784;28;20027;-74
2023/06/13 05:45:20;;;;;;;6.30;3.30;;;20.80;80.80;;;;;;4953669;28;20024;-74
2023/06/13 05:47:45;;;;;;;5.80;2.80;;;20.80;80.00;;;;;;4953850;28;20108;-74
2023/06/13 05:50:11;;;;;;;5.78;2.90;;;20.90;79.90;;;;;;4953929;28;20085;-75
2023/06/13 05:52:37;;;;;;;10.15;3.53;;;20.90;80.10;;;;;;4953600;29;20106;-75
2023/06/13 05:55:04;;;;;;;5.80;3.00;;;20.90;79.30;;;;;;4953880;28;20486;-75
2023/06/13 05:57:44;;;;;;;4.20;2.80;;;21.00;79.20;;;;;;4953919;28;20036;-74
2023/06/13 06:00:13;;;;;;;8.75;3.10;;;21.00;79.70;;;;;;4953836;28;20391;-75
2023/06/13 06:02:42;;;;;;;5.65;2.85;;;21.00;79.00;;;;;;4953694;28;20513;-75
2023/06/13 06:05:08;;;;;;;7.30;2.70;;;21.00;78.60;;;;;;4951857;28;20536;-74
2023/06/13 06:07:36;;;;;;;4.53;3.03;;;21.10;78.60;;;;;;4953192;28;20118;-74
2023/06/13 06:10:03;;;;;;;5.95;2.50;;;21.10;77.20;;;;;;5019647;28;20054;-74
2023/06/13 06:12:29;;;;;;;3.92;2.60;;;21.10;76.40;;;;;;5037885;28;20024;-75
2023/06/13 06:14:54;;;;;;;6.50;2.45;;;21.20;76.30;;;;;;5054021;28;20519;-71
2023/06/13 06:17:20;;;;;;;6.60;2.63;;;21.20;75.30;;;;;;4984079;28;20055;-74
2023/06/13 06:19:47;;;;;;;4.13;2.40;;;21.20;74.20;;;;;;4953091;28;20038;-74
2023/06/13 06:22:13;;;;;;;5.10;2.80;;;21.20;74.10;;;;;;4952715;29;20085;-72
2023/06/13 06:24:39;;;;;;;10.77;2.70;;;21.30;74.10;;;;;;4952728;28;20027;-72
2023/06/13 06:27:06;;;;;;;4.90;2.70;;;21.30;73.50;;;;;;4952407;28;20040;-74
2023/06/13 06:29:31;;;;;;;5.05;2.40;;;21.30;73.10;;;;;;4952761;28;20019;-73
2023/06/13 06:31:57;;;;;;;4.25;2.72;;;21.40;74.00;;;;;;4952212;28;20070;-73
2023/06/13 06:34:23;;;;;;;6.25;2.80;;;21.40;73.20;;;;;;4952351;29;20057;-74
2023/06/13 06:36:49;;;;;;;11.57;3.03;;;21.40;73.10;;;;;;4952991;28;20088;-74
2023/06/13 06:39:15;;;;;;;5.22;2.70;;;21.40;72.90;;;;;;4952755;28;20051;-69
2023/06/13 06:41:42;;;;;;;11.00;2.92;;;21.40;72.80;;;;;;4952871;28;20030;-73
2023/06/13 06:44:08;;;;;;;10.35;2.88;;;21.50;72.20;;;;;;4952187;28;20089;-70
2023/06/13 06:46:33;;;;;;;3.53;2.72;;;21.40;71.70;;;;;;5018282;28;20368;-71
2023/06/13 06:48:59;;;;;;;5.22;2.55;;;21.50;71.80;;;;;;4952881;28;20088;-70
2023/06/13 06:51:25;;;;;;;14.13;3.65;;;21.50;72.10;;;;;;4952995;28;20107;-74
2023/06/13 06:53:50;;;;;;;4.32;2.67;;;21.60;72.50;;;;;;4952704;28;20399;-72
2023/06/13 06:56:17;;;;;;;7.90;2.88;;;21.60;71.80;;;;;;4952540;28;20031;-70
2023/06/13 06:58:42;;;;;;;6.18;2.30;;;21.70;71.50;;;;;;4952733;28;20737;-73
2023/06/13 07:01:08;;;;;;;3.83;2.95;;;21.70;71.50;;;;;;4952807;29;20113;-74
2023/06/13 07:03:35;;;;;;;11.48;2.72;;;21.80;70.30;;;;;;4952756;28;20139;-73
2023/06/13 07:06:02;;;;;;;5.93;2.45;;;21.80;70.40;;;;;;4952801;28;20470;-75
2023/06/13 07:08:28;;;;;;;9.30;2.80;;;21.80;70.60;;;;;;4952536;28;20094;-75
2023/06/13 07:10:54;;;;;;;5.60;2.67;;;21.80;70.20;;;;;;5018723;28;20122;-74
2023/06/13 07:13:19;;;;;;;7.82;2.75;;;21.80;70.50;;;;;;4951222;28;20024;-74
2023/06/13 07:15:45;;;;;;;5.00;2.65;;;21.90;70.60;;;;;;4952225;28;20028;-75
2023/06/13 07:18:11;;;;;;;10.30;3.03;;;21.90;71.90;;;;;;4949840;28;20031;-70
2023/06/13 07:20:36;;;;;;;4.38;2.83;;;21.90;71.60;;;;;;4949910;28;20031;-79
2023/06/13 07:23:02;;;;;;;3.70;2.35;;;21.90;71.40;;;;;;4950645;28;20066;-76
2023/06/13 07:25:28;;;;;;;8.63;2.80;;;21.90;71.30;;;;;;4981499;28;20083;-74
2023/06/13 07:27:54;;;;;;;4.93;2.80;;;21.90;71.20;;;;;;4960623;28;20028;-75
2023/06/13 07:30:20;;;;;;;8.02;2.78;;;21.90;71.30;;;;;;4939810;28;20026;-75
2023/06/13 07:32:46;;;;;;;3.97;2.67;;;22.00;71.30;;;;;;4945671;28;20490;-74
2023/06/13 07:35:14;;;;;;;8.52;2.70;;;22.00;71.50;;;;;;4947498;22;20056;-74
2023/06/13 07:37:40;;;;;;;10.25;3.78;;;22.00;71.50;;;;;;4916493;28;20452;-75
2023/06/13 07:40:08;;;;;;;10.85;3.30;;;22.00;71.50;;;;;;4916507;28;20094;-75
2023/06/13 07:42:34;;;;;;;9.48;2.88;;;22.00;71.90;;;;;;4916398;28;20082;-75
2023/06/13 07:44:59;;;;;;;7.70;2.95;;;22.10;72.10;;;;;;4918180;28;20032;-75
2023/06/13 07:47:25;;;;;;;7.18;2.80;;;22.00;72.50;;;;;;4933195;28;20483;-74
2023/06/13 07:49:51;;;;;;;4.25;2.80;;;22.10;72.90;;;;;;4933147;28;20086;-75
2023/06/13 07:52:17;;;;;;;7.13;2.85;;;22.10;73.30;;;;;;4933011;28;20031;-76
2023/06/13 07:54:42;;;;;;;4.60;2.60;;;22.20;72.40;;;;;;4926806;28;20408;-75
2023/06/13 07:57:08;;;;;;;5.38;3.05;;;22.30;71.50;;;;;;4913885;28;20028;-75
2023/06/13 07:59:34;;;;;;;9.25;3.15;;;22.30;70.90;;;;;;4913928;28;20031;-73
2023/06/13 08:01:59;;;;;;;3.00;2.40;;;22.30;70.30;;;;;;4912719;28;20565;-77
2023/06/13 08:04:25;;;;;;;8.77;3.38;;;22.40;70.50;;;;;;4912209;28;20032;-75
2023/06/13 08:06:51;;;;;;;6.45;2.80;;;22.40;70.60;;;;;;4913690;28;20694;-76
2023/06/13 08:09:17;;;;;;;6.32;3.10;;;22.50;70.50;;;;;;4913886;28;20039;-76
2023/06/13 08:11:44;;;;;;;4.95;2.95;;;22.50;70.40;;;;;;4914104;28;20103;-77
2023/06/13 08:14:12;;;;;;;5.30;2.65;;;22.50;70.30;;;;;;4914003;28;20095;-76
2023/06/13 08:16:38;;;;;;;4.20;2.80;;;22.50;70.20;;;;;;4913855;28;20115;-77
2023/06/13 08:19:04;;;;;;;7.03;2.80;;;22.50;68.80;;;;;;4914140;28;20053;-77
2023/06/13 08:21:31;;;;;;;6.00;2.80;;;22.50;68.60;;;;;;4913907;28;20063;-76
2023/06/13 08:23:59;;;;;;;4.60;2.65;;;22.50;69.10;;;;;;4913779;28;20103;-75
2023/06/13 08:26:32;;;;;;;7.70;2.88;;;22.50;69.80;;;;;;4913842;28;20467;-76
2023/06/13 08:28:59;;;;;;;6.78;3.08;;;22.60;69.20;;;;;;4913381;28;20024;-75
2023/06/13 08:31:25;;;;;;;7.88;2.90;;;22.60;69.00;;;;;;4913782;28;20447;-76
2023/06/13 08:33:51;;;;;;;4.07;2.97;;;22.70;68.90;;;;;;4913849;28;20024;-76
2023/06/13 08:36:17;;;;;;;4.05;2.63;;;22.60;69.20;;;;;;4913534;28;20083;-75
2023/06/13 08:38:43;;;;;;;4.72;2.83;;;22.60;69.50;;;;;;4913701;28;20028;-77
2023/06/13 08:41:10;;;;;;;6.68;2.40;;;22.60;67.10;;;;;;4913511;28;20028;-71
2023/06/13 08:43:37;;;;;;;4.28;2.78;;;22.60;66.40;;;;;;4913454;28;20021;-74
2023/06/13 08:46:03;;;;;;;5.68;2.80;;;22.60;67.40;;;;;;4913500;28;20041;-76
2023/06/13 08:48:32;;;;;;;5.55;2.70;;;22.60;67.30;;;;;;4913524;28;20107;-75
2023/06/13 08:51:00;;;;;;;4.28;2.60;;;22.60;66.80;;;;;;4913437;28;20086;-76
2023/06/13 08:53:29;;;;;;;5.18;2.70;;;22.60;66.60;;;;;;4913539;28;20025;-75
2023/06/13 08:55:56;;;;;;;5.35;3.42;;;22.60;65.30;;;;;;4915240;29;20040;-76
2023/06/13 08:58:27;;;;;;;6.93;2.70;;;22.60;65.50;;;;;;4917005;28;20035;-76
2023/06/13 09:00:54;;;;;;;5.25;2.75;;;22.50;65.50;;;;;;4916678;28;20024;-75
2023/06/13 09:03:20;;;;;;;6.78;2.40;;;22.60;65.30;;;;;;4916442;28;20034;-75
2023/06/13 09:05:47;;;;;;;8.57;2.70;;;22.50;63.90;;;;;;4916727;29;20032;-77
2023/06/13 09:08:15;;;;;;;3.53;2.40;;;22.50;64.30;;;;;;4916572;28;20032;-77
2023/06/13 09:10:41;;;;;;;5.32;2.72;;;22.50;64.50;;;;;;4981818;28;20429;-76
2023/06/13 09:13:07;;;;;;;10.45;3.05;;;22.50;64.20;;;;;;4916607;28;20032;-77
2023/06/13 09:15:34;;;;;;;5.32;2.50;;;22.50;64.90;;;;;;4916639;28;20376;-77
2023/06/13 09:18:01;;;;;;;4.45;3.28;;;22.50;64.60;;;;;;4916231;28;20036;-76
2023/06/13 09:20:28;;;;;;;4.03;2.85;;;22.50;63.60;;;;;;4916379;28;20115;-76
2023/06/13 09:22:55;;;;;;;4.80;2.97;;;22.50;63.70;;;;;;4981759;28;20373;-74
2023/06/13 09:25:22;;;;;;;4.45;2.92;;;22.50;63.70;;;;;;4916593;28;20028;-75
2023/06/13 09:27:47;;;;;;;3.70;3.00;;;22.50;64.20;;;;;;4916322;28;20036;-77
2023/06/13 09:30:16;;;;;;;6.53;2.90;;;22.50;64.70;;;;;;4916305;28;20090;-76
2023/06/13 09:32:53;;;;;;;4.07;2.88;;;22.50;64.90;;;;;;4916223;28;20166;-77
2023/06/13 09:35:19;;;;;;;3.53;2.63;;;22.50;65.20;;;;;;4916057;28;20044;-78
2023/06/13 09:37:46;;;;;;;8.77;2.45;;;22.50;65.00;;;;;;4916168;28;20085;-76
2023/06/13 09:40:12;;;;;;;10.25;3.13;;;22.50;64.10;;;;;;4916114;29;20025;-76
2023/06/13 09:42:38;;;;;;;10.10;2.90;;;22.50;64.00;;;;;;4916314;28;20025;-77
2023/06/13 09:45:08;;;;;;;7.35;3.33;;;22.50;64.00;;;;;;4915969;28;20178;-77
2023/06/13 09:47:34;;;;;;;4.70;2.90;;;22.50;64.10;;;;;;4915889;29;20028;-74
2023/06/13 09:50:03;;;;;;;11.23;3.35;;;22.50;64.90;;;;;;4915825;28;20036;-74
2023/06/13 09:52:32;;;;;;;7.82;3.30;;;22.50;65.00;;;;;;4915867;29;20091;-75
2023/06/13 09:54:58;;;;;;;11.30;3.45;;;22.50;65.10;;;;;;4915780;28;20028;-76
2023/06/13 09:57:24;;;;;;;4.05;2.92;;;22.50;64.60;;;;;;4915655;28;20028;-74
2023/06/13 09:59:50;;;;;;;11.43;3.00;;;22.60;64.80;;;;;;4915858;29;20051;-71
2023/06/13 10:02:20;;;;;;;6.53;3.05;;;22.60;65.70;;;;;;4915617;28;20038;-71
2023/06/13 10:04:50;;;;;;;8.18;2.88;;;22.60;65.80;;;;;;4915667;28;20036;-75
2023/06/13 10:07:16;;;;;;;7.20;2.63;;;22.70;65.60;;;;;;4914739;28;20119;-75
2023/06/13 10:09:41;;;;;;;16.75;3.05;;;22.80;65.00;;;;;;4915378;28;20032;-75
2023/06/13 10:12:21;;;;;;;5.20;2.83;;;22.80;65.10;;;;;;4915221;28;20094;-75
2023/06/13 10:14:56;;;;;;;6.13;2.70;;;22.90;66.20;;;;;;4915566;28;20117;-75
2023/06/13 10:17:23;;;;;;;7.13;2.88;;;23.00;65.90;;;;;;4915557;29;20024;-75
2023/06/13 10:19:54;;;;;;;8.57;3.28;;;23.10;65.70;;;;;;4915379;29;20051;-75
2023/06/13 10:22:20;;;;;;;6.32;2.80;;;23.20;65.90;;;;;;4915511;28;20028;-74
2023/06/13 10:24:50;;;;;;;6.57;2.50;;;23.20;65.10;;;;;;4980860;28;20059;-74
2023/06/13 10:27:19;;;;;;;7.22;2.95;;;23.20;64.80;;;;;;4915187;28;20036;-69
2023/06/13 10:30:07;;;;;;;5.07;3.35;;;23.30;64.20;;;;;;4915429;28;20396;-69
2023/06/13 10:32:44;;;;;;;6.68;2.95;;;23.30;64.20;;;;;;4915332;28;20029;-69
2023/06/13 10:35:32;;;;;;;8.45;3.25;;;23.40;64.40;;;;;;4915020;28;20080;-68
2023/06/13 10:38:19;;;;;;;4.47;2.65;;;23.40;64.70;;;;;;4915288;28;20032;-69
2023/06/13 10:41:23;;;;;;;5.93;3.03;;;23.50;64.10;;;;;;4914896;28;20489;-69
2023/06/13 10:44:14;;;;;;;5.15;3.20;;;23.50;62.50;;;;;;4915020;28;20039;-69
2023/06/13 10:46:40;;;;;;;6.10;3.10;;;23.50;61.80;;;;;;4914680;28;20067;-69
2023/06/13 10:49:12;;;;;;;5.28;3.08;;;23.50;61.90;;;;;;4914710;28;20031;-70
2023/06/13 10:51:38;;;;;;;8.98;2.97;;;23.50;61.90;;;;;;4914827;28;20036;-69
2023/06/13 10:54:03;;;;;;;5.88;2.85;;;23.50;60.30;;;;;;4914937;28;20032;-69
2023/06/13 10:56:31;;;;;;;3.80;2.85;;;23.50;61.00;;;;;;4914816;28;20477;-69
2023/06/13 10:59:04;;;;;;;6.72;3.25;;;23.50;61.90;;;;;;4915061;28;20024;-69
2023/06/13 11:01:31;;;;;;;3.53;2.75;;;23.60;63.40;;;;;;4914802;28;20098;-69
2023/06/13 11:04:23;;;;;;;6.95;3.45;;;23.60;63.60;;;;;;4914418;28;20027;-69
2023/06/13 11:06:52;;;;;;;5.88;3.15;;;23.60;63.70;;;;;;4914291;28;20044;-69
2023/06/13 11:09:23;;;;;;;8.95;2.97;;;23.70;65.10;;;;;;4915037;28;20468;-70
2023/06/13 11:11:53;;;;;;;5.53;2.58;;;23.70;65.00;;;;;;4914571;28;20032;-69
2023/06/13 11:14:24;;;;;;;6.50;3.25;;;23.80;63.50;;;;;;4914682;28;20491;-69
2023/06/13 11:16:51;;;;;;;3.95;3.00;;;23.80;63.10;;;;;;4914451;28;20119;-69
2023/06/13 11:19:21;;;;;;;4.43;3.10;;;23.80;63.20;;;;;;4914293;28;20056;-69
2023/06/13 11:21:51;;;;;;;8.00;3.17;;;23.90;63.70;;;;;;4914323;28;20484;-70
2023/06/13 11:24:18;;;;;;;4.57;3.17;;;23.90;62.50;;;;;;4914107;28;20081;-70
2023/06/13 11:26:45;;;;;;;3.70;3.10;;;24.00;62.20;;;;;;4914018;28;20679;-70
2023/06/13 11:29:12;;;;;;;4.05;2.88;;;24.10;63.50;;;;;;4914174;29;20021;-71
2023/06/13 11:31:39;;;;;;;8.73;3.40;;;24.20;62.20;;;;;;4914225;28;20024;-70
2023/06/13 11:34:12;;;;;;;5.53;3.03;;;24.30;61.60;;;;;;4914175;28;20111;-70
2023/06/13 11:36:42;;;;;;;6.13;3.40;;;24.30;61.90;;;;;;4913715;28;20487;-71
2023/06/13 11:39:14;;;;;;;6.20;3.22;;;24.40;61.80;;;;;;4913337;29;20107;-70
2023/06/13 11:41:40;;;;;;;6.20;3.25;;;24.50;61.70;;;;;;4912576;28;20040;-69
2023/06/13 11:44:06;;;;;;;6.72;2.85;;;24.50;60.20;;;;;;4913940;28;20034;-70
2023/06/13 11:46:32;;;;;;;4.75;3.03;;;24.60;60.40;;;;;;4913457;28;20044;-70
2023/06/13 11:48:59;;;;;;;5.97;3.20;;;24.70;60.60;;;;;;4913321;29;20063;-70
2023/06/13 11:51:30;;;;;;;8.43;3.10;;;24.80;60.50;;;;;;4913701;28;20028;-70
2023/06/13 11:53:59;;;;;;;4.90;2.90;;;24.90;61.10;;;;;;4912435;28;20032;-70
2023/06/13 11:56:26;;;;;;;7.15;3.20;;;24.90;60.60;;;;;;4911247;28;20032;-70
2023/06/13 11:58:53;;;;;;;5.68;3.20;;;25.00;58.80;;;;;;4910667;28;20047;-72
2023/06/13 12:01:21;;;;;;;7.15;3.47;;;25.10;58.60;;;;;;4911614;28;20052;-69
2023/06/13 12:03:48;;;;;;;4.85;2.95;;;25.20;58.70;;;;;;4913567;28;20024;-70
2023/06/13 12:06:15;;;;;;;5.57;3.15;;;25.20;57.70;;;;;;4913135;29;20060;-70
2023/06/13 12:08:44;;;;;;;7.55;3.13;;;25.20;58.10;;;;;;4913202;28;20028;-70
2023/06/13 12:11:11;;;;;;;3.22;2.90;;;25.10;57.60;;;;;;4912555;28;20051;-70
2023/06/13 12:13:37;;;;;;;5.65;3.03;;;25.10;57.70;;;;;;4912579;28;20110;-70
2023/06/13 12:16:07;;;;;;;5.18;2.80;;;25.10;57.80;;;;;;4911288;28;20063;-71
2023/06/13 12:18:33;;;;;;;4.32;3.13;;;25.10;57.30;;;;;;4911406;28;20032;-70
2023/06/13 12:20:59;;;;;;;5.03;2.90;;;25.10;57.30;;;;;;4911604;28;20028;-71
2023/06/13 12:23:28;;;;;;;4.25;2.92;;;25.20;57.30;;;;;;4912963;28;20040;-70
2023/06/13 12:25:55;;;;;;;4.63;3.22;;;25.30;58.10;;;;;;4913200;28;20035;-70
2023/06/13 12:28:21;;;;;;;4.93;3.28;;;25.30;59.10;;;;;;4913348;28;20392;-70
2023/06/13 12:30:49;;;;;;;6.40;3.00;;;25.30;58.90;;;;;;4915087;28;20051;-70
2023/06/13 12:33:18;;;;;;;4.97;3.60;;;25.40;58.90;;;;;;4916565;28;20016;-69
2023/06/13 12:35:51;;;;;;;5.95;3.10;;;25.40;58.60;;;;;;4916420;28;20047;-70
2023/06/13 12:38:25;;;;;;;3.80;3.13;;;25.50;58.30;;;;;;4916670;28;20032;-70
2023/06/13 12:40:51;;;;;;;10.82;3.10;;;25.50;57.60;;;;;;4914475;28;20082;-71
2023/06/13 12:43:28;;;;;;;7.25;3.20;;;25.50;57.30;;;;;;4914163;28;20035;-70
2023/06/13 12:45:58;;;;;;;10.05;3.22;;;25.50;57.60;;;;;;4915060;28;20035;-69
2023/06/13 12:48:25;;;;;;;5.53;3.08;;;25.60;57.80;;;;;;4916354;28;20040;-71